Time;durP1;ratioP1;P1;durP2;ratioP2;P2;SDS_P1;SDS_P2;PMS_P1;PMS_P2;Temp;Humidity;BMP_temperature;BMP_pressure;BME280_temperature;BME280_humidity;BME280_pressure;Samples;Min_cycle;Max_cycle;Signal;HPM_P1;HPM_P2
2023/03/27 00:01:20;;;;;;;1.25;0.95;;;12.90;99.90;;;;;;5013906;28;20053;-50
2023/03/27 00:03:48;;;;;;;1.25;1.08;;;12.90;99.90;;;;;;5013312;28;20108;-51
2023/03/27 00:06:16;;;;;;;2.55;1.17;;;12.90;99.90;;;;;;5013339;28;20421;-50
2023/03/27 00:08:43;;;;;;;1.50;1.23;;;13.10;99.90;;;;;;5013143;28;20034;-51
2023/03/27 00:11:10;;;;;;;1.33;1.23;;;13.20;99.90;;;;;;5013262;28;20088;-50
2023/03/27 00:13:37;;;;;;;0.85;0.80;;;13.30;99.90;;;;;;5013419;28;20026;-48
2023/03/27 00:16:04;;;;;;;1.30;1.10;;;13.40;99.90;;;;;;5013910;28;20569;-50
2023/03/27 00:18:32;;;;;;;2.95;1.55;;;13.30;99.90;;;;;;5013107;28;20093;-49
2023/03/27 00:20:59;;;;;;;2.65;1.75;;;13.20;99.90;;;;;;5013850;28;20034;-48
2023/03/27 00:23:28;;;;;;;1.52;1.10;;;13.10;99.90;;;;;;5011130;28;20469;-50
2023/03/27 00:25:56;;;;;;;2.08;1.00;;;13.20;99.90;;;;;;5013257;28;20038;-49
2023/03/27 00:28:26;;;;;;;1.67;1.13;;;13.10;99.90;;;;;;5013140;28;20049;-51
2023/03/27 00:30:53;;;;;;;2.63;1.55;;;13.10;99.90;;;;;;5013207;28;20069;-49
2023/03/27 00:33:19;;;;;;;2.42;1.33;;;13.10;99.90;;;;;;5013075;28;20121;-51
2023/03/27 00:35:47;;;;;;;3.22;1.83;;;13.20;99.90;;;;;;5013288;28;20441;-49
2023/03/27 00:38:13;;;;;;;1.10;0.98;;;13.30;99.90;;;;;;5013695;28;20421;-51
2023/03/27 00:40:41;;;;;;;1.00;0.90;;;13.50;99.90;;;;;;5012993;28;20030;-51
2023/03/27 00:43:32;;;;;;;2.28;1.35;;;13.60;99.90;;;;;;5013640;28;20041;-51
2023/03/27 00:46:26;;;;;;;0.88;0.75;;;13.60;99.90;;;;;;5015357;28;20045;-49
2023/03/27 00:48:53;;;;;;;1.23;1.13;;;13.50;99.90;;;;;;5016765;28;20076;-49
2023/03/27 00:51:22;;;;;;;1.70;1.23;;;13.50;99.90;;;;;;5017097;28;20030;-51
2023/03/27 00:53:50;;;;;;;3.67;1.58;;;13.50;99.90;;;;;;5016808;28;20057;-50
2023/03/27 00:56:16;;;;;;;1.75;0.98;;;13.40;99.90;;;;;;5016780;28;20077;-50
2023/03/27 00:58:50;;;;;;;1.40;1.27;;;13.40;99.90;;;;;;5016491;28;20112;-49
2023/03/27 01:01:18;;;;;;;3.28;1.15;;;13.40;99.90;;;;;;5016853;28;20037;-51
2023/03/27 01:03:46;;;;;;;1.77;1.10;;;13.40;99.90;;;;;;5016538;28;20025;-50
2023/03/27 01:06:15;;;;;;;2.17;1.30;;;13.50;99.90;;;;;;5016612;28;20382;-51
2023/03/27 01:08:43;;;;;;;0.93;0.85;;;13.50;99.90;;;;;;5014997;28;20382;-50
2023/03/27 01:11:21;;;;;;;1.60;1.27;;;13.50;99.90;;;;;;5016407;28;20072;-49
2023/03/27 01:14:07;;;;;;;1.30;0.95;;;13.60;99.90;;;;;;5030968;28;20581;-49
2023/03/27 01:16:51;;;;;;;0.60;0.60;;;13.60;99.90;;;;;;5015567;28;20064;-52
2023/03/27 01:19:37;;;;;;;0.80;0.80;;;13.60;99.90;;;;;;5016400;28;20048;-49
2023/03/27 01:22:47;;;;;;;1.88;1.02;;;13.60;99.90;;;;;;5016656;28;20040;-50
2023/03/27 01:25:36;;;;;;;0.57;0.57;;;13.70;99.90;;;;;;5014088;28;20042;-51
2023/03/27 01:28:37;;;;;;;0.52;0.52;;;13.70;99.90;;;;;;5013938;28;20041;-51
2023/03/27 01:31:23;;;;;;;0.60;0.60;;;13.70;99.90;;;;;;4955650;29;20043;-49
2023/03/27 01:34:19;;;;;;;1.00;0.93;;;13.60;99.90;;;;;;4917140;29;20460;-49
2023/03/27 01:37:17;;;;;;;1.50;0.80;;;13.70;99.90;;;;;;4916914;29;20073;-52
2023/03/27 01:39:54;;;;;;;1.15;0.90;;;13.70;99.90;;;;;;4917209;29;20049;-50
2023/03/27 01:42:51;;;;;;;0.80;0.80;;;13.60;99.90;;;;;;4917071;29;20032;-50
2023/03/27 01:45:22;;;;;;;0.68;0.68;;;13.60;99.90;;;;;;4917297;29;20044;-49
2023/03/27 01:47:56;;;;;;;0.60;0.60;;;13.60;99.90;;;;;;4916955;29;20147;-50
2023/03/27 01:50:43;;;;;;;0.55;0.38;;;13.70;99.90;;;;;;4917356;29;20563;-52
2023/03/27 01:53:27;;;;;;;0.30;0.30;;;13.70;99.90;;;;;;4917303;29;20492;-51
2023/03/27 01:56:04;;;;;;;0.30;0.30;;;13.70;99.90;;;;;;4917143;29;20080;-49
2023/03/27 01:58:35;;;;;;;0.57;0.57;;;13.70;99.90;;;;;;4901013;29;20047;-49
2023/03/27 02:01:03;;;;;;;0.43;0.40;;;13.70;99.90;;;;;;4917069;29;20515;-49
2023/03/27 02:03:44;;;;;;;0.30;0.30;;;13.70;99.90;;;;;;4916781;29;20127;-48
2023/03/27 02:06:16;;;;;;;0.20;0.20;;;13.70;99.90;;;;;;4916930;29;20039;-48
2023/03/27 02:09:04;;;;;;;0.85;0.85;;;13.70;99.90;;;;;;4958179;28;20047;-50
2023/03/27 02:11:40;;;;;;;1.02;0.68;;;13.80;99.90;;;;;;5004310;28;20046;-51
2023/03/27 02:14:14;;;;;;;0.17;0.17;;;13.70;99.90;;;;;;5015478;28;20034;-49
2023/03/27 02:16:45;;;;;;;0.73;0.45;;;13.70;99.90;;;;;;5029973;28;20033;-51
2023/03/27 02:19:19;;;;;;;0.73;0.73;;;13.70;99.90;;;;;;5029901;28;20046;-49
2023/03/27 02:21:46;;;;;;;0.20;0.20;;;13.50;99.90;;;;;;5015421;28;20029;-49
2023/03/27 02:24:15;;;;;;;0.15;0.15;;;13.60;99.90;;;;;;5014990;28;20062;-49
2023/03/27 02:26:40;;;;;;;0.30;0.30;;;13.60;99.90;;;;;;5015236;28;20026;-50
2023/03/27 02:29:51;;;;;;;0.40;0.40;;;13.30;99.90;;;;;;5012823;28;20045;-51
2023/03/27 02:32:23;;;;;;;0.30;0.30;;;13.30;99.90;;;;;;5010942;28;20465;-51
2023/03/27 02:35:00;;;;;;;;;;;13.20;99.90;;;;;;4997212;28;20123;-49
2023/03/27 02:37:27;;;;;;;0.60;0.50;;;13.20;99.90;;;;;;5014914;28;19910;-50
2023/03/27 02:40:17;;;;;;;0.22;0.22;;;13.10;99.90;;;;;;5014762;28;20501;-51
2023/03/27 02:43:02;;;;;;;0.30;0.30;;;13.20;99.90;;;;;;4995312;28;20097;-50
2023/03/27 02:45:27;;;;;;;0.20;0.20;;;13.10;99.90;;;;;;4995348;28;20038;-49
2023/03/27 02:48:07;;;;;;;1.75;0.63;;;13.10;99.90;;;;;;4993039;28;20046;-50
2023/03/27 02:51:07;;;;;;;0.65;0.35;;;13.00;99.90;;;;;;4995167;28;20502;-51
2023/03/27 02:53:40;;;;;;;0.25;0.25;;;13.00;99.90;;;;;;5012289;28;20042;-51
2023/03/27 02:56:09;;;;;;;0.20;0.20;;;13.10;99.90;;;;;;5012335;28;20030;-50
2023/03/27 02:58:48;;;;;;;0.30;0.30;;;13.00;99.90;;;;;;5012203;28;20030;-48
2023/03/27 03:01:18;;;;;;;0.82;0.82;;;13.10;99.90;;;;;;5012072;28;20029;-50
2023/03/27 03:03:56;;;;;;;0.10;0.10;;;13.20;99.90;;;;;;5012075;28;20410;-49
2023/03/27 03:06:28;;;;;;;0.20;0.20;;;13.30;99.90;;;;;;5011784;28;20116;-51
2023/03/27 03:09:00;;;;;;;0.30;0.30;;;13.30;99.90;;;;;;5012022;28;20042;-49
2023/03/27 03:11:28;;;;;;;0.30;0.30;;;13.40;99.90;;;;;;5012147;28;20061;-51
2023/03/27 03:13:54;;;;;;;0.65;0.35;;;13.30;99.90;;;;;;5012284;28;20025;-51
2023/03/27 03:16:21;;;;;;;0.25;0.25;;;13.20;99.90;;;;;;5012106;28;20041;-51
2023/03/27 03:18:47;;;;;;;0.40;0.40;;;13.20;99.90;;;;;;5011995;28;20034;-50
2023/03/27 03:21:14;;;;;;;0.32;0.20;;;13.40;99.90;;;;;;5011902;28;20156;-50
2023/03/27 03:23:40;;;;;;;0.05;0.05;;;13.40;99.90;;;;;;4978839;28;20054;-50
2023/03/27 03:26:06;;;;;;;0.45;0.45;;;13.30;99.90;;;;;;5011823;28;20525;-49
2023/03/27 03:28:35;;;;;;;0.15;0.15;;;13.50;99.90;;;;;;5011652;28;20433;-49
2023/03/27 03:31:04;;;;;;;0.32;0.30;;;13.50;99.90;;;;;;4994568;28;20053;-48
2023/03/27 03:33:30;;;;;;;0.13;0.13;;;13.60;99.90;;;;;;4994118;28;20026;-51
2023/03/27 03:36:00;;;;;;;0.30;0.30;;;13.50;99.90;;;;;;4994120;28;20033;-49
2023/03/27 03:38:28;;;;;;;0.20;0.20;;;;;;;;;;4994053;28;20045;-51
2023/03/27 03:40:56;;;;;;;1.08;0.80;;;13.90;99.90;;;;;;4994057;28;20156;-51
2023/03/27 03:43:24;;;;;;;0.52;0.30;;;13.70;99.90;;;;;;4994364;28;20034;-50
2023/03/27 03:45:50;;;;;;;0.50;0.50;;;12.90;99.90;;;;;;4994390;28;20378;-50
2023/03/27 03:48:17;;;;;;;0.20;0.20;;;;;;;;;;4993888;28;20113;-51
2023/03/27 03:50:44;;;;;;;0.40;0.40;;;11.90;99.90;;;;;;4993727;28;20121;-50
2023/03/27 03:53:10;;;;;;;0.20;0.20;;;11.60;99.90;;;;;;4994170;28;20431;-52
2023/03/27 03:55:36;;;;;;;0.45;0.45;;;11.30;99.90;;;;;;4994109;28;20026;-50
2023/03/27 03:58:03;;;;;;;2.65;2.08;;;11.20;99.90;;;;;;4994299;28;20081;-51
2023/03/27 04:00:30;;;;;;;0.20;0.20;;;11.10;99.90;;;;;;5013510;28;20057;-49
2023/03/27 04:02:56;;;;;;;0.25;0.25;;;11.10;99.90;;;;;;5013767;28;20114;-51
2023/03/27 04:05:22;;;;;;;0.25;0.25;;;11.00;99.90;;;;;;5013437;28;20042;-51
2023/03/27 04:07:48;;;;;;;0.20;0.20;;;10.90;99.90;;;;;;5013240;28;20053;-50
2023/03/27 04:10:15;;;;;;;0.10;0.10;;;10.80;99.90;;;;;;5011510;28;20482;-49
2023/03/27 04:12:46;;;;;;;0.15;0.15;;;10.80;99.90;;;;;;5013503;28;20021;-51
2023/03/27 04:15:11;;;;;;;0.20;0.20;;;10.90;99.90;;;;;;5012806;28;20030;-51
2023/03/27 04:17:38;;;;;;;0.20;0.20;;;10.90;99.90;;;;;;5015539;28;20092;-51
2023/03/27 04:20:05;;;;;;;0.20;0.20;;;11.00;99.90;;;;;;5018096;28;20034;-49
2023/03/27 04:22:36;;;;;;;0.15;0.15;;;11.10;99.90;;;;;;4996090;28;20406;-49
2023/03/27 04:25:04;;;;;;;0.10;0.10;;;11.20;99.90;;;;;;4998251;28;20041;-49
2023/03/27 04:27:30;;;;;;;0.20;0.20;;;11.30;99.90;;;;;;4978438;28;20409;-49
2023/03/27 04:29:56;;;;;;;0.20;0.20;;;11.40;99.90;;;;;;4997903;28;20041;-52
2023/03/27 04:32:25;;;;;;;0.10;0.10;;;11.00;99.90;;;;;;5016239;28;20037;-49
2023/03/27 04:34:51;;;;;;;0.10;0.10;;;10.90;99.90;;;;;;5017154;28;20038;-50
2023/03/27 04:37:17;;;;;;;0.30;0.30;;;10.50;99.90;;;;;;5016748;28;20018;-51
2023/03/27 04:39:45;;;;;;;0.10;0.10;;;10.40;99.90;;;;;;5017443;28;20370;-50
2023/03/27 04:42:14;;;;;;;0.10;0.10;;;10.40;99.90;;;;;;5014838;28;20046;-52
2023/03/27 04:44:40;;;;;;;0.10;0.10;;;10.40;99.90;;;;;;5016678;28;20029;-51
2023/03/27 04:47:07;;;;;;;0.45;0.45;;;10.40;99.90;;;;;;5016605;28;20041;-51
2023/03/27 04:49:41;;;;;;;0.17;0.17;;;10.30;99.90;;;;;;5016825;28;20037;-50
2023/03/27 04:52:06;;;;;;;0.10;0.10;;;10.30;99.90;;;;;;5016493;28;20029;-51
2023/03/27 04:54:33;;;;;;;0.10;0.10;;;10.30;99.90;;;;;;5017007;28;20041;-50
2023/03/27 04:57:02;;;;;;;0.10;0.10;;;10.30;99.90;;;;;;5017013;28;20029;-52
2023/03/27 04:59:32;;;;;;;0.38;0.32;;;;;;;;;;5028036;28;20034;-51
2023/03/27 05:02:00;;;;;;;0.20;0.20;;;10.20;99.90;;;;;;4997236;28;20445;-51
2023/03/27 05:04:27;;;;;;;0.30;0.30;;;10.10;99.90;;;;;;5014159;28;20464;-51
2023/03/27 05:06:57;;;;;;;0.20;0.20;;;10.00;99.90;;;;;;5014303;28;20121;-49
2023/03/27 05:09:23;;;;;;;0.10;0.10;;;10.10;99.90;;;;;;5014538;28;20096;-51
2023/03/27 05:11:49;;;;;;;0.10;0.10;;;10.10;99.90;;;;;;5008301;28;20037;-49
2023/03/27 05:14:19;;;;;;;0.25;0.25;;;10.10;99.90;;;;;;5011122;28;20030;-52
2023/03/27 05:16:48;;;;;;;0.10;0.10;;;10.10;99.90;;;;;;5013762;28;20121;-50
2023/03/27 05:19:15;;;;;;;0.25;0.25;;;10.10;99.90;;;;;;5012246;28;20045;-56
2023/03/27 05:21:41;;;;;;;0.10;0.10;;;10.10;99.90;;;;;;5013797;28;20045;-50
2023/03/27 05:24:08;;;;;;;0.10;0.10;;;10.10;99.90;;;;;;5013929;28;20053;-50
2023/03/27 05:26:34;;;;;;;0.10;0.10;;;10.00;99.90;;;;;;5013599;28;20102;-50
2023/03/27 05:28:59;;;;;;;0.10;0.10;;;10.00;99.90;;;;;;5012401;28;20117;-50
2023/03/27 05:31:27;;;;;;;0.15;0.15;;;10.10;99.90;;;;;;5014104;28;20034;-51
2023/03/27 05:33:53;;;;;;;0.60;0.60;;;10.30;99.90;;;;;;5015487;28;20418;-50
2023/03/27 05:36:20;;;;;;;0.28;0.28;;;10.50;99.90;;;;;;5006079;28;20034;-51
2023/03/27 05:38:47;;;;;;;0.13;0.13;;;10.60;99.90;;;;;;5006139;28;20470;-51
2023/03/27 05:41:14;;;;;;;0.10;0.10;;;10.70;99.90;;;;;;5009897;28;20084;-51
2023/03/27 05:43:40;;;;;;;0.20;0.20;;;10.70;99.90;;;;;;5006023;28;20403;-51
2023/03/27 05:46:06;;;;;;;0.10;0.10;;;10.80;99.90;;;;;;5004851;28;20049;-51
2023/03/27 05:48:32;;;;;;;0.10;0.10;;;10.80;99.90;;;;;;5006529;28;20530;-51
2023/03/27 05:50:58;;;;;;;0.10;0.10;;;10.70;99.90;;;;;;5012026;28;20030;-51
2023/03/27 05:53:24;;;;;;;0.10;0.10;;;10.60;99.90;;;;;;5030433;28;20041;-50
2023/03/27 05:55:49;;;;;;;0.17;0.17;;;10.40;99.90;;;;;;5015704;28;20030;-51
2023/03/27 05:58:15;;;;;;;0.10;0.10;;;10.40;99.90;;;;;;5030653;28;20132;-50
2023/03/27 06:00:42;;;;;;;0.57;0.57;;;10.40;99.90;;;;;;5015833;28;20032;-51
2023/03/27 06:03:10;;;;;;;0.10;0.10;;;10.30;99.90;;;;;;5015487;28;20141;-51
2023/03/27 06:05:39;;;;;;;0.35;0.35;;;10.30;99.90;;;;;;5015458;28;20109;-50
2023/03/27 06:08:10;;;;;;;0.20;0.20;;;10.40;99.90;;;;;;5015484;28;20048;-51
2023/03/27 06:10:39;;;;;;;0.10;0.10;;;10.50;99.90;;;;;;5015529;28;20029;-51
2023/03/27 06:13:09;;;;;;;0.15;0.15;;;10.60;99.90;;;;;;5015543;28;20046;-51
2023/03/27 06:15:37;;;;;;;0.20;0.20;;;10.70;99.90;;;;;;5015543;28;20022;-50
2023/03/27 06:18:03;;;;;;;0.10;0.10;;;10.80;99.90;;;;;;5015244;28;20029;-50
2023/03/27 06:20:29;;;;;;;0.20;0.20;;;10.70;99.90;;;;;;5014631;28;20359;-51
2023/03/27 06:22:59;;;;;;;0.20;0.20;;;10.80;99.90;;;;;;5027402;28;20433;-51
2023/03/27 06:25:26;;;;;;;0.30;0.30;;;10.90;99.90;;;;;;4995503;28;20030;-50
2023/03/27 06:27:53;;;;;;;0.52;0.52;;;11.00;99.90;;;;;;5005230;28;20045;-51
2023/03/27 06:30:21;;;;;;;0.28;0.28;;;11.00;99.90;;;;;;5015189;28;20045;-51
2023/03/27 06:32:49;;;;;;;0.20;0.20;;;11.10;99.90;;;;;;5014978;28;20037;-51
2023/03/27 06:35:16;;;;;;;0.38;0.38;;;11.00;99.90;;;;;;5000651;28;20486;-50
2023/03/27 06:37:47;;;;;;;0.52;0.52;;;11.10;99.90;;;;;;5012888;28;20452;-51
2023/03/27 06:40:23;;;;;;;0.28;0.28;;;11.10;99.90;;;;;;5014968;28;20371;-51
2023/03/27 06:42:53;;;;;;;0.20;0.20;;;11.20;99.90;;;;;;5014008;28;20030;-51
2023/03/27 06:45:23;;;;;;;0.30;0.30;;;11.30;99.90;;;;;;5029305;28;20569;-50
2023/03/27 06:47:54;;;;;;;0.10;0.10;;;11.60;99.90;;;;;;5029260;28;20133;-50
2023/03/27 06:50:21;;;;;;;0.10;0.10;;;11.60;99.90;;;;;;5014892;28;20504;-51
2023/03/27 06:52:47;;;;;;;0.25;0.25;;;11.60;99.90;;;;;;5014622;28;20026;-50
2023/03/27 06:55:15;;;;;;;0.10;0.10;;;11.70;99.90;;;;;;5014357;28;20117;-50
2023/03/27 06:57:48;;;;;;;0.10;0.10;;;11.70;99.90;;;;;;5011546;28;20026;-51
2023/03/27 07:00:21;;;;;;;0.30;0.30;;;11.70;99.90;;;;;;5010287;28;20026;-51
2023/03/27 07:02:48;;;;;;;0.13;0.13;;;11.80;99.90;;;;;;5003018;28;20080;-51
2023/03/27 07:05:14;;;;;;;0.20;0.20;;;11.90;99.90;;;;;;5006315;28;20028;-50
2023/03/27 07:07:41;;;;;;;0.20;0.20;;;11.90;99.90;;;;;;4980221;28;20040;-51
2023/03/27 07:10:08;;;;;;;0.30;0.30;;;12.00;99.90;;;;;;5010871;28;20038;-50
2023/03/27 07:12:34;;;;;;;0.20;0.20;;;12.10;99.90;;;;;;5027343;28;20065;-51
2023/03/27 07:15:01;;;;;;;0.20;0.20;;;12.20;99.90;;;;;;5009700;28;20096;-51
2023/03/27 07:17:26;;;;;;;0.43;0.43;;;12.20;99.90;;;;;;5010594;28;20034;-50
2023/03/27 07:19:52;;;;;;;0.30;0.30;;;12.10;99.90;;;;;;5010839;28;20041;-52
2023/03/27 07:22:18;;;;;;;0.45;0.40;;;12.20;99.90;;;;;;5010044;28;20533;-48
2023/03/27 07:24:44;;;;;;;0.20;0.20;;;12.40;99.90;;;;;;5010907;28;20069;-50
2023/03/27 07:27:10;;;;;;;0.20;0.20;;;12.40;99.90;;;;;;5010512;28;20034;-46
2023/03/27 07:29:36;;;;;;;0.40;0.40;;;;;;;;;;5010754;28;20532;-49
2023/03/27 07:32:04;;;;;;;0.20;0.20;;;12.50;99.90;;;;;;5009470;28;20486;-52
2023/03/27 07:34:30;;;;;;;0.20;0.20;;;12.60;99.90;;;;;;5011616;28;20053;-51
2023/03/27 07:36:56;;;;;;;0.40;0.28;;;12.60;99.90;;;;;;4997800;28;20487;-51
2023/03/27 07:39:22;;;;;;;0.20;0.20;;;12.70;99.90;;;;;;4994140;28;20034;-55
2023/03/27 07:41:48;;;;;;;0.25;0.25;;;12.70;99.90;;;;;;5000786;28;20034;-51
2023/03/27 07:44:14;;;;;;;0.20;0.20;;;12.90;99.90;;;;;;5011935;28;20088;-51
2023/03/27 07:46:40;;;;;;;0.57;0.57;;;;;;;;;;4992506;28;20030;-50
2023/03/27 07:49:07;;;;;;;0.17;0.17;;;;;;;;;;5001117;28;20038;-50
2023/03/27 07:51:34;;;;;;;0.30;0.30;;;;;;;;;;5002632;28;20022;-47
2023/03/27 07:54:03;;;;;;;3.05;0.30;;;;;;;;;;5003773;28;20026;-53
2023/03/27 07:56:31;;;;;;;0.98;0.82;;;14.20;99.90;;;;;;5007901;28;20112;-49
2023/03/27 07:58:56;;;;;;;0.85;0.68;;;14.50;99.90;;;;;;5001935;28;20034;-53
2023/03/27 08:01:24;;;;;;;0.40;0.40;;;14.80;99.90;;;;;;5008420;28;20041;-50
2023/03/27 08:03:50;;;;;;;0.52;0.52;;;15.10;99.90;;;;;;4993640;28;20069;-51
2023/03/27 08:06:17;;;;;;;0.20;0.20;;;;;;;;;;4994411;28;20038;-50
2023/03/27 08:08:43;;;;;;;0.40;0.40;;;15.80;99.90;;;;;;4994128;28;20039;-50
2023/03/27 08:11:09;;;;;;;0.30;0.30;;;16.10;99.90;;;;;;5010911;28;20509;-46
2023/03/27 08:13:35;;;;;;;0.10;0.10;;;16.30;99.90;;;;;;5012336;28;20137;-49
2023/03/27 08:16:16;;;;;;;0.10;0.10;;;16.30;99.90;;;;;;5013734;28;20101;-49
2023/03/27 08:18:43;;;;;;;0.10;0.10;;;16.40;99.90;;;;;;5009239;28;20033;-50
2023/03/27 08:21:10;;;;;;;0.20;0.20;;;16.50;99.90;;;;;;5028150;28;20042;-49
2023/03/27 08:23:37;;;;;;;0.20;0.20;;;16.30;99.90;;;;;;5013303;28;20097;-49
2023/03/27 08:26:04;;;;;;;0.47;0.43;;;16.20;99.90;;;;;;5013326;28;20030;-49
2023/03/27 08:28:32;;;;;;;0.10;0.10;;;15.90;99.90;;;;;;5013295;28;20489;-49
2023/03/27 08:31:00;;;;;;;0.10;0.10;;;16.30;99.90;;;;;;5013229;28;20041;-50
2023/03/27 08:33:27;;;;;;;0.40;0.40;;;16.40;99.90;;;;;;5013086;28;20121;-49
2023/03/27 08:35:56;;;;;;;0.10;0.10;;;16.10;99.90;;;;;;5013384;28;20493;-49
2023/03/27 08:38:22;;;;;;;0.10;0.10;;;15.90;99.90;;;;;;5013315;28;20084;-49
2023/03/27 08:40:52;;;;;;;0.10;0.10;;;16.10;99.90;;;;;;5013449;28;20389;-49
2023/03/27 08:43:21;;;;;;;0.25;0.25;;;15.70;99.90;;;;;;5013161;28;20129;-49
2023/03/27 08:45:56;;;;;;;0.25;0.25;;;15.60;99.90;;;;;;5012769;28;20117;-49
2023/03/27 08:48:29;;;;;;;0.22;0.20;;;15.60;99.90;;;;;;5013381;28;20117;-49
2023/03/27 08:51:26;;;;;;;0.28;0.28;;;15.60;99.90;;;;;;5011376;28;20088;-49
2023/03/27 08:54:07;;;;;;;0.10;0.10;;;15.60;99.90;;;;;;5012964;28;20516;-49
2023/03/27 08:56:33;;;;;;;0.10;0.10;;;15.40;99.90;;;;;;5013059;28;20489;-49
2023/03/27 08:58:59;;;;;;;2.58;0.50;;;15.20;99.90;;;;;;5013418;28;20033;-49
2023/03/27 09:01:47;;;;;;;0.10;0.10;;;15.30;99.90;;;;;;5012202;28;20074;-49
2023/03/27 09:04:12;;;;;;;0.30;0.30;;;15.50;99.90;;;;;;5027354;28;20128;-49
2023/03/27 09:06:44;;;;;;;0.40;0.40;;;15.70;99.90;;;;;;5016610;28;20057;-49
2023/03/27 09:09:26;;;;;;;;;;;15.80;99.90;;;;;;5017030;28;20461;-48
2023/03/27 09:11:52;;;;;;;0.22;0.22;;;15.70;99.90;;;;;;5017165;28;19909;-48
2023/03/27 09:14:26;;;;;;;0.10;0.10;;;15.20;99.90;;;;;;5016671;28;20100;-49
2023/03/27 09:16:54;;;;;;;0.20;0.20;;;14.20;99.90;;;;;;5031213;28;20046;-50
2023/03/27 09:19:41;;;;;;;0.32;0.32;;;13.20;99.90;;;;;;5015407;28;20034;-49
2023/03/27 09:22:15;;;;;;;0.20;0.20;;;12.40;99.90;;;;;;5007512;28;20116;-49
2023/03/27 09:24:44;;;;;;;0.35;0.35;;;12.30;99.90;;;;;;5004879;28;20096;-49
2023/03/27 09:27:32;;;;;;;0.40;0.40;;;12.00;99.90;;;;;;5005167;28;20034;-51
2023/03/27 09:30:23;;;;;;;0.20;0.20;;;11.80;99.90;;;;;;4996762;28;20040;-50
2023/03/27 09:32:54;;;;;;;0.57;0.57;;;11.80;99.90;;;;;;4996788;28;20030;-51
2023/03/27 09:35:20;;;;;;;0.30;0.30;;;11.90;99.90;;;;;;4996612;28;20073;-50
2023/03/27 09:37:52;;;;;;;0.30;0.30;;;12.10;99.90;;;;;;4996495;28;20062;-50
2023/03/27 09:40:42;;;;;;;3.75;0.63;;;12.10;99.90;;;;;;5010866;28;20548;-51
2023/03/27 09:43:25;;;;;;;0.30;0.30;;;12.30;99.90;;;;;;4996440;28;20512;-49
2023/03/27 09:45:53;;;;;;;0.30;0.30;;;12.40;99.90;;;;;;4996310;28;20038;-51
2023/03/27 09:48:37;;;;;;;0.70;0.70;;;12.50;99.90;;;;;;5013784;28;20050;-50
2023/03/27 09:51:04;;;;;;;3.30;0.50;;;12.70;99.90;;;;;;4997477;28;20038;-51
2023/03/27 09:53:31;;;;;;;0.45;0.45;;;12.60;99.90;;;;;;5013754;28;20054;-49
2023/03/27 09:56:04;;;;;;;0.88;0.88;;;12.80;99.90;;;;;;4997155;28;20038;-51
2023/03/27 09:58:47;;;;;;;0.45;0.45;;;12.60;99.90;;;;;;5013696;28;20042;-50
2023/03/27 10:01:15;;;;;;;0.57;0.57;;;12.40;99.90;;;;;;5013528;28;20117;-50
2023/03/27 10:04:09;;;;;;;0.13;0.13;;;12.50;99.90;;;;;;4980695;28;20038;-52
2023/03/27 10:06:58;;;;;;;0.30;0.30;;;12.70;99.90;;;;;;5013487;28;20042;-51
2023/03/27 10:09:33;;;;;;;0.22;0.22;;;12.70;99.90;;;;;;5013482;28;20061;-52
2023/03/27 10:12:05;;;;;;;0.65;0.57;;;12.10;99.90;;;;;;5008872;28;20034;-51
2023/03/27 10:14:43;;;;;;;0.50;0.50;;;11.60;99.90;;;;;;5007183;28;20049;-52
2023/03/27 10:17:21;;;;;;;0.40;0.40;;;11.40;99.90;;;;;;5010582;28;20038;-52
2023/03/27 10:19:49;;;;;;;0.30;0.30;;;11.40;99.90;;;;;;5010140;28;20482;-51
2023/03/27 10:22:35;;;;;;;0.10;0.10;;;11.20;99.90;;;;;;5005949;28;20024;-49
2023/03/27 10:25:05;;;;;;;0.30;0.30;;;11.20;99.90;;;;;;5004529;28;20034;-47
2023/03/27 10:27:33;;;;;;;0.20;0.20;;;11.00;99.90;;;;;;4985677;28;20058;-51
2023/03/27 10:29:59;;;;;;;0.30;0.30;;;11.20;99.90;;;;;;5004328;28;20049;-49
2023/03/27 10:32:46;;;;;;;0.20;0.20;;;11.40;99.90;;;;;;5003424;28;20069;-50
2023/03/27 10:35:33;;;;;;;0.30;0.30;;;11.40;99.90;;;;;;5003992;28;20026;-49
2023/03/27 10:38:00;;;;;;;0.20;0.20;;;11.40;99.90;;;;;;5003515;28;20076;-53
2023/03/27 10:40:30;;;;;;;0.43;0.20;;;11.40;99.90;;;;;;5005789;28;20034;-53
2023/03/27 10:43:01;;;;;;;0.30;0.30;;;11.40;99.90;;;;;;5004798;28;20088;-49
2023/03/27 10:45:27;;;;;;;0.20;0.20;;;11.40;99.90;;;;;;5000967;28;20029;-50
2023/03/27 10:47:57;;;;;;;0.10;0.10;;;11.30;99.90;;;;;;5003413;28;20077;-51
2023/03/27 10:50:28;;;;;;;0.50;0.50;;;11.20;99.90;;;;;;5007343;28;20045;-54
2023/03/27 10:53:06;;;;;;;0.75;0.75;;;11.00;99.90;;;;;;5010575;28;20466;-52
2023/03/27 10:55:47;;;;;;;0.20;0.20;;;11.00;99.90;;;;;;5005305;28;20041;-52
2023/03/27 10:58:40;;;;;;;0.20;0.20;;;10.90;99.90;;;;;;5005305;28;20481;-50
2023/03/27 11:01:30;;;;;;;0.22;0.22;;;11.00;99.90;;;;;;5022116;28;20037;-50
2023/03/27 11:04:19;;;;;;;0.13;0.13;;;11.10;99.90;;;;;;4959941;28;20403;-54
2023/03/27 11:06:47;;;;;;;0.10;0.10;;;11.20;99.90;;;;;;4962844;28;20043;-51
2023/03/27 11:09:22;;;;;;;0.30;0.30;;;11.10;99.90;;;;;;4958840;28;20043;-51
2023/03/27 11:11:58;;;;;;;0.10;0.10;;;10.90;99.90;;;;;;4961213;28;20038;-52
2023/03/27 11:14:33;;;;;;;0.22;0.22;;;10.80;99.90;;;;;;4935100;28;20491;-49
2023/03/27 11:17:03;;;;;;;0.85;0.20;;;10.70;99.90;;;;;;4962491;28;20055;-50
2023/03/27 11:19:42;;;;;;;0.20;0.20;;;10.80;99.90;;;;;;4964613;28;20089;-50
2023/03/27 11:22:18;;;;;;;0.20;0.20;;;10.70;99.90;;;;;;4961855;28;20042;-50
2023/03/27 11:24:57;;;;;;;0.20;0.20;;;10.70;99.90;;;;;;4964525;28;20047;-52
2023/03/27 11:27:27;;;;;;;0.57;0.57;;;10.70;99.90;;;;;;4961987;28;20495;-50
2023/03/27 11:30:11;;;;;;;0.20;0.20;;;10.50;99.90;;;;;;4961480;28;20038;-54
2023/03/27 11:32:51;;;;;;;0.40;0.40;;;10.60;99.90;;;;;;4966957;28;20556;-50
2023/03/27 11:35:23;;;;;;;0.30;0.30;;;10.50;99.90;;;;;;4961059;28;20621;-51
2023/03/27 11:37:58;;;;;;;0.22;0.22;;;10.40;99.90;;;;;;4962206;28;20047;-51
2023/03/27 11:40:46;;;;;;;0.20;0.20;;;10.50;99.90;;;;;;4980870;28;20046;-50
2023/03/27 11:43:14;;;;;;;0.20;0.20;;;10.60;99.90;;;;;;5004234;28;20041;-50
2023/03/27 11:46:11;;;;;;;0.30;0.30;;;10.60;99.90;;;;;;4998217;28;20049;-49
2023/03/27 11:49:05;;;;;;;0.13;0.13;;;10.70;99.90;;;;;;5005338;28;20494;-49
2023/03/27 11:51:44;;;;;;;0.20;0.20;;;10.80;99.90;;;;;;5000861;28;20045;-50
2023/03/27 11:54:22;;;;;;;0.20;0.20;;;10.90;99.90;;;;;;5000603;28;20033;-52
2023/03/27 11:56:54;;;;;;;0.28;0.28;;;10.90;99.90;;;;;;5002642;28;20125;-51
2023/03/27 11:59:50;;;;;;;0.40;0.40;;;11.00;99.90;;;;;;5011638;28;20034;-51
2023/03/27 12:02:34;;;;;;;0.20;0.20;;;11.10;99.90;;;;;;5001231;28;20061;-51
2023/03/27 12:05:15;;;;;;;0.20;0.20;;;11.20;99.90;;;;;;5002213;28;20036;-51
2023/03/27 12:08:16;;;;;;;0.20;0.20;;;11.20;99.90;;;;;;5011344;28;20045;-51
2023/03/27 12:10:45;;;;;;;0.50;0.45;;;11.10;99.90;;;;;;5008463;28;20042;-50
2023/03/27 12:13:22;;;;;;;0.20;0.20;;;11.10;99.90;;;;;;5000006;28;20061;-49
2023/03/27 12:15:51;;;;;;;0.20;0.20;;;11.10;99.90;;;;;;5000522;28;20030;-51
2023/03/27 12:18:41;;;;;;;0.40;0.40;;;11.10;99.90;;;;;;5001590;28;20030;-49
2023/03/27 12:21:14;;;;;;;0.50;0.50;;;11.20;99.90;;;;;;4993818;28;20383;-51
2023/03/27 12:23:49;;;;;;;0.20;0.20;;;11.20;99.90;;;;;;4993143;28;20054;-54
2023/03/27 12:26:43;;;;;;;0.30;0.30;;;11.10;99.90;;;;;;4997868;28;20025;-52
2023/03/27 12:29:17;;;;;;;1.08;0.40;;;11.20;99.90;;;;;;5003505;28;20478;-54
2023/03/27 12:31:45;;;;;;;0.40;0.40;;;11.10;99.90;;;;;;5005197;28;20113;-54
2023/03/27 12:34:49;;;;;;;0.22;0.22;;;11.50;99.90;;;;;;5008981;28;20033;-52
2023/03/27 12:37:17;;;;;;;0.20;0.20;;;12.00;99.90;;;;;;4994088;28;20026;-51
2023/03/27 12:39:52;;;;;;;0.20;0.20;;;12.10;99.90;;;;;;5006768;28;20053;-51
2023/03/27 12:42:37;;;;;;;0.20;0.20;;;12.30;99.90;;;;;;5017533;28;20042;-51
2023/03/27 12:45:15;;;;;;;0.20;0.20;;;12.10;99.90;;;;;;5017059;28;20057;-51
2023/03/27 12:48:08;;;;;;;0.30;0.30;;;11.70;99.90;;;;;;5017347;28;20057;-51
2023/03/27 12:50:56;;;;;;;0.70;0.40;;;11.70;99.90;;;;;;5017172;28;20033;-51
2023/03/27 12:53:25;;;;;;;0.20;0.20;;;11.50;99.90;;;;;;5015690;28;20034;-52
2023/03/27 12:56:15;;;;;;;0.20;0.20;;;11.60;99.90;;;;;;5017017;28;20124;-52
2023/03/27 12:58:43;;;;;;;0.10;0.10;;;11.70;99.90;;;;;;5014976;28;20069;-51
2023/03/27 13:01:11;;;;;;;0.63;0.40;;;11.80;99.90;;;;;;5016894;28;20053;-51
2023/03/27 13:03:51;;;;;;;0.30;0.30;;;11.90;99.90;;;;;;5016703;28;20124;-51
2023/03/27 13:06:41;;;;;;;0.20;0.20;;;11.60;99.90;;;;;;5016806;28;20113;-51
2023/03/27 13:09:32;;;;;;;0.20;0.20;;;11.60;99.90;;;;;;5016572;28;20041;-51
2023/03/27 13:12:22;;;;;;;0.70;0.70;;;11.00;99.90;;;;;;5016911;28;20072;-51
2023/03/27 13:15:06;;;;;;;0.20;0.20;;;11.50;99.90;;;;;;5016864;28;20088;-51
2023/03/27 13:17:37;;;;;;;0.20;0.20;;;11.40;99.90;;;;;;5016607;28;20112;-51
2023/03/27 13:20:09;;;;;;;0.15;0.15;;;11.40;99.90;;;;;;5016553;28;20473;-51